Time;durP1;ratioP1;P1;durP2;ratioP2;P2;SDS_P1;SDS_P2;PMS_P1;PMS_P2;Temp;Humidity;BMP_temperature;BMP_pressure;BME280_temperature;BME280_humidity;BME280_pressure;Samples;Min_cycle;Max_cycle;Signal;HPM_P1;HPM_P2
2022/01/30 00:00:03;;;;;;;72.13;47.45;;;23.40;96.10;;;;;;4215318;28;20044;-69
2022/01/30 00:02:10;;;;;;;68.40;47.05;;;23.40;96.00;;;;;;4219560;28;20661;-69
2022/01/30 00:04:15;;;;;;;72.15;47.22;;;23.40;96.20;;;;;;4218252;28;20577;-68
2022/01/30 00:06:19;;;;;;;78.60;46.60;;;23.40;96.40;;;;;;4200911;28;20083;-69
2022/01/30 00:08:26;;;;;;;71.40;46.55;;;23.40;96.40;;;;;;4217141;28;20075;-70
2022/01/30 00:10:37;;;;;;;74.05;48.55;;;23.40;96.20;;;;;;4221566;28;20048;-69
2022/01/30 00:12:53;;;;;;;73.35;48.13;;;23.40;96.20;;;;;;4217182;28;20443;-69
2022/01/30 00:14:58;;;;;;;78.18;49.03;;;23.30;96.30;;;;;;4216218;28;20036;-69
2022/01/30 00:17:16;;;;;;;83.32;48.35;;;23.40;96.40;;;;;;4217181;28;20190;-68
2022/01/30 00:19:27;;;;;;;72.97;47.28;;;23.30;96.70;;;;;;4213947;28;20067;-68
2022/01/30 00:21:40;;;;;;;64.18;47.70;;;23.30;96.80;;;;;;4221816;28;20078;-67
2022/01/30 00:23:51;;;;;;;67.68;48.50;;;23.40;96.80;;;;;;4212677;28;20633;-69
2022/01/30 00:25:57;;;;;;;68.65;49.47;;;23.30;97.20;;;;;;4211933;28;20109;-67
2022/01/30 00:28:05;;;;;;;77.18;50.53;;;23.30;97.30;;;;;;4226577;28;20043;-68
2022/01/30 00:30:14;;;;;;;63.00;48.20;;;23.40;97.00;;;;;;4202904;28;20123;-68
2022/01/30 00:32:18;;;;;;;63.50;46.53;;;23.50;96.90;;;;;;4213585;28;20682;-68
2022/01/30 00:34:43;;;;;;;61.22;44.00;;;23.60;96.90;;;;;;4215059;28;20717;-68
2022/01/30 00:36:48;;;;;;;65.32;44.42;;;23.60;97.10;;;;;;4207072;28;20036;-68
2022/01/30 00:38:54;;;;;;;64.70;44.20;;;23.70;97.00;;;;;;4213070;28;20093;-67
2022/01/30 00:40:58;;;;;;;63.40;45.38;;;23.70;97.20;;;;;;4213670;28;20130;-68
2022/01/30 00:43:04;;;;;;;65.35;45.20;;;23.70;97.50;;;;;;4214458;28;20806;-68
2022/01/30 00:45:09;;;;;;;59.58;43.85;;;23.70;97.50;;;;;;4215376;28;20052;-67
2022/01/30 00:47:14;;;;;;;59.90;45.30;;;23.80;97.60;;;;;;4213378;28;20123;-68
2022/01/30 00:49:18;;;;;;;61.88;43.05;;;23.90;97.50;;;;;;4196442;28;20056;-68
2022/01/30 00:51:23;;;;;;;54.10;41.95;;;23.90;97.40;;;;;;4213865;28;20071;-68
2022/01/30 00:53:27;;;;;;;59.55;43.35;;;23.90;97.40;;;;;;4197808;28;20446;-68
2022/01/30 00:55:32;;;;;;;87.85;44.30;;;24.00;97.50;;;;;;4211215;28;20125;-68
2022/01/30 00:57:36;;;;;;;258.67;53.90;;;24.00;97.40;;;;;;4213955;28;20047;-68
2022/01/30 00:59:40;;;;;;;244.25;55.33;;;24.00;97.50;;;;;;4193011;28;20123;-67
2022/01/30 01:01:45;;;;;;;119.85;45.13;;;24.10;97.60;;;;;;4195664;28;20415;-68
2022/01/30 01:03:50;;;;;;;101.68;43.63;;;24.10;97.50;;;;;;4214946;28;20044;-67
2022/01/30 01:05:54;;;;;;;70.60;42.70;;;24.10;97.20;;;;;;4193060;28;20044;-66
2022/01/30 01:08:02;;;;;;;57.88;40.40;;;24.20;97.00;;;;;;4213384;28;20085;-67
2022/01/30 01:10:17;;;;;;;61.47;41.92;;;24.30;96.60;;;;;;4211396;28;20040;-67
2022/01/30 01:23:37;;;;;;;52.33;37.30;;;24.50;95.60;;;;;;4186495;28;20052;-68
2022/01/30 01:25:43;;;;;;;49.38;37.72;;;24.50;95.20;;;;;;4191494;28;20084;-67
2022/01/30 01:27:47;;;;;;;50.03;37.70;;;24.50;95.10;;;;;;4205799;28;20066;-68
2022/01/30 01:29:51;;;;;;;50.60;37.60;;;24.60;95.10;;;;;;4205731;28;20044;-68
2022/01/30 01:31:56;;;;;;;56.33;39.40;;;24.60;95.10;;;;;;4190600;28;20087;-67
2022/01/30 01:34:22;;;;;;;64.97;40.55;;;24.70;95.20;;;;;;4207056;28;20040;-68
2022/01/30 01:36:25;;;;;;;55.83;40.80;;;24.80;95.00;;;;;;4207713;28;20068;-68
2022/01/30 01:38:30;;;;;;;53.05;38.45;;;24.80;94.90;;;;;;4192792;28;20048;-68
2022/01/30 01:40:34;;;;;;;52.90;38.05;;;24.80;94.70;;;;;;4205248;28;20051;-67
2022/01/30 01:42:38;;;;;;;52.08;38.72;;;24.90;94.60;;;;;;4200627;28;20833;-68
2022/01/30 01:44:50;;;;;;;52.15;38.30;;;24.90;94.30;;;;;;4192044;28;20044;-67
2022/01/30 01:46:54;;;;;;;48.22;35.25;;;25.00;94.20;;;;;;4209996;28;20083;-67
2022/01/30 01:48:59;;;;;;;51.65;38.55;;;25.10;93.90;;;;;;4206427;28;20048;-67
2022/01/30 01:51:14;;;;;;;47.70;37.47;;;25.10;93.60;;;;;;4205794;28;20044;-69
2022/01/30 01:53:21;;;;;;;51.67;37.42;;;25.20;93.60;;;;;;4211702;28;20047;-68
2022/01/30 01:55:25;;;;;;;47.92;37.25;;;25.30;93.30;;;;;;4204240;28;20048;-68
2022/01/30 01:57:30;;;;;;;49.63;36.95;;;25.30;93.20;;;;;;4210359;28;20083;-68
2022/01/30 01:59:56;;;;;;;45.88;35.90;;;25.30;93.10;;;;;;4196704;28;20084;-69
2022/01/30 02:02:12;;;;;;;49.85;37.60;;;25.40;92.90;;;;;;4209078;28;20052;-68
2022/01/30 02:04:16;;;;;;;46.67;36.55;;;25.30;92.90;;;;;;4204120;28;20479;-68
2022/01/30 02:06:23;;;;;;;49.08;37.17;;;25.30;92.90;;;;;;4191541;28;20044;-68
2022/01/30 02:10:52;;;;;;;48.20;37.08;;;25.40;92.90;;;;;;4156215;28;20037;-69
2022/01/30 02:13:08;;;;;;;70.28;38.13;;;25.50;92.70;;;;;;4161306;28;20073;-69
2022/01/30 02:15:32;;;;;;;56.25;36.97;;;25.50;92.50;;;;;;4174723;28;20049;-68
2022/01/30 02:26:51;;;;;;;54.97;31.08;;;25.70;92.00;;;;;;4159863;28;20045;-69
2022/01/30 02:28:55;;;;;;;39.75;28.75;;;25.80;91.50;;;;;;4173077;28;20439;-68
2022/01/30 02:31:07;;;;;;;34.05;27.85;;;25.80;90.50;;;;;;4157210;28;20053;-69
2022/01/30 02:33:11;;;;;;;37.05;26.98;;;25.80;90.10;;;;;;4160063;28;20045;-69
2022/01/30 02:35:16;;;;;;;32.30;25.25;;;25.90;90.00;;;;;;4143195;28;20049;-68
2022/01/30 02:37:20;;;;;;;36.67;27.55;;;25.90;88.90;;;;;;4176442;28;20049;-69
2022/01/30 02:39:25;;;;;;;37.70;27.13;;;26.00;89.60;;;;;;4160046;28;20484;-68
2022/01/30 02:41:30;;;;;;;35.47;26.75;;;26.00;89.70;;;;;;4187424;28;20581;-69
2022/01/30 02:43:40;;;;;;;36.78;28.02;;;26.00;89.60;;;;;;4193949;28;20090;-69
2022/01/30 02:45:51;;;;;;;38.08;27.90;;;26.00;90.10;;;;;;4195195;28;20407;-68
2022/01/30 02:48:13;;;;;;;37.53;28.08;;;26.10;89.80;;;;;;4194504;28;20140;-69
2022/01/30 02:50:32;;;;;;;37.58;26.88;;;26.20;89.40;;;;;;4194095;28;20061;-69
2022/01/30 02:52:38;;;;;;;42.20;28.33;;;26.20;88.90;;;;;;4194818;28;20037;-69
2022/01/30 02:54:43;;;;;;;36.30;26.38;;;26.30;89.20;;;;;;4212093;28;20069;-68
2022/01/30 02:56:48;;;;;;;32.85;26.75;;;26.40;89.60;;;;;;4194231;28;20434;-69
2022/01/30 02:58:52;;;;;;;37.92;27.40;;;26.40;89.70;;;;;;4210777;28;20552;-68
2022/01/30 03:00:56;;;;;;;40.33;27.38;;;26.50;88.80;;;;;;4208154;28;20078;-68
2022/01/30 03:03:05;;;;;;;36.30;28.02;;;26.60;88.70;;;;;;4194957;28;20059;-67
2022/01/30 03:05:09;;;;;;;35.50;26.60;;;26.70;88.70;;;;;;4212088;28;20097;-67
2022/01/30 03:07:14;;;;;;;36.20;27.27;;;26.70;88.40;;;;;;4211164;28;20075;-68
2022/01/30 03:09:33;;;;;;;36.15;27.48;;;26.80;88.60;;;;;;4190435;28;20052;-68
2022/01/30 03:11:38;;;;;;;33.58;26.77;;;26.80;89.00;;;;;;4210521;28;20044;-67
2022/01/30 03:13:43;;;;;;;32.30;27.17;;;26.90;88.40;;;;;;4209861;28;20489;-67
2022/01/30 03:15:47;;;;;;;34.60;27.10;;;27.00;88.20;;;;;;4211825;28;20123;-68
2022/01/30 03:17:51;;;;;;;35.78;27.42;;;27.10;88.00;;;;;;4196640;28;20690;-68
2022/01/30 03:19:56;;;;;;;40.47;28.10;;;27.20;87.90;;;;;;4178029;28;20048;-69
2022/01/30 03:22:00;;;;;;;40.15;26.77;;;27.20;87.40;;;;;;4211807;28;20828;-68
2022/01/30 03:24:05;;;;;;;36.88;27.75;;;27.20;86.90;;;;;;4208396;28;20436;-68
2022/01/30 03:26:11;;;;;;;39.55;29.65;;;27.30;86.60;;;;;;4194004;28;20039;-68
2022/01/30 03:28:29;;;;;;;39.83;29.45;;;27.40;86.40;;;;;;4214287;28;20039;-68
2022/01/30 03:30:47;;;;;;;37.63;27.38;;;27.40;86.30;;;;;;4193314;28;20040;-68
2022/01/30 03:33:00;;;;;;;38.85;27.48;;;27.50;86.70;;;;;;4210942;28;20033;-68
2022/01/30 03:35:08;;;;;;;35.42;27.20;;;27.50;86.80;;;;;;4191863;28;20127;-69
2022/01/30 03:37:12;;;;;;;37.60;27.83;;;27.50;86.80;;;;;;4194399;28;20434;-69
2022/01/30 03:39:17;;;;;;;36.28;27.83;;;27.50;85.70;;;;;;4210615;28;20048;-69
2022/01/30 03:41:23;;;;;;;34.40;27.55;;;27.50;86.30;;;;;;4210861;28;20041;-68
2022/01/30 03:43:29;;;;;;;33.50;25.52;;;27.60;86.00;;;;;;4199885;28;20059;-68
2022/01/30 03:45:33;;;;;;;35.70;25.77;;;27.70;84.40;;;;;;4193507;28;21250;-69
2022/01/30 03:47:38;;;;;;;32.03;25.02;;;27.60;84.90;;;;;;4194422;28;20056;-68
2022/01/30 03:49:43;;;;;;;25.00;18.85;;;27.60;84.10;;;;;;4208206;28;20052;-68
2022/01/30 03:51:48;;;;;;;20.40;16.70;;;27.80;79.30;;;;;;4228804;28;20591;-67
2022/01/30 03:54:12;;;;;;;21.70;17.05;;;27.90;76.90;;;;;;4228923;28;20040;-68
2022/01/30 03:56:17;;;;;;;22.50;16.55;;;27.90;77.50;;;;;;4213120;28;20091;-69
2022/01/30 03:58:21;;;;;;;19.50;17.00;;;28.00;77.90;;;;;;4230937;28;20071;-68
2022/01/30 04:00:26;;;;;;;20.35;17.50;;;28.00;79.00;;;;;;4187727;28;20053;-68
2022/01/30 04:02:36;;;;;;;25.42;18.90;;;28.00;79.00;;;;;;4212837;28;20110;-68
2022/01/30 04:04:41;;;;;;;23.80;18.20;;;28.10;79.10;;;;;;4213634;28;20051;-69
2022/01/30 04:06:47;;;;;;;21.65;17.25;;;28.20;79.30;;;;;;4219477;28;20071;-68
2022/01/30 04:09:11;;;;;;;25.42;18.67;;;28.20;79.20;;;;;;4216068;28;20044;-70
2022/01/30 04:11:29;;;;;;;20.20;16.05;;;28.30;78.40;;;;;;4216677;28;20102;-68
2022/01/30 04:13:53;;;;;;;19.55;15.85;;;28.40;76.60;;;;;;4205073;28;20032;-68
2022/01/30 04:16:09;;;;;;;18.80;14.80;;;28.40;76.60;;;;;;4228396;28;20036;-68
2022/01/30 04:18:34;;;;;;;20.67;15.43;;;28.40;76.60;;;;;;4218855;28;20054;-67
2022/01/30 04:20:58;;;;;;;23.20;16.05;;;28.50;76.10;;;;;;4213742;28;20040;-69
2022/01/30 04:23:26;;;;;;;21.35;15.52;;;28.60;75.80;;;;;;4211771;28;20142;-69
2022/01/30 04:25:42;;;;;;;20.33;16.65;;;28.70;75.60;;;;;;4231437;28;20786;-68
2022/01/30 04:28:01;;;;;;;22.02;15.52;;;28.70;76.50;;;;;;4213039;28;20094;-68
2022/01/30 04:30:13;;;;;;;19.63;15.10;;;28.70;76.80;;;;;;4193413;28;20072;-69
2022/01/30 04:32:42;;;;;;;22.33;15.05;;;28.80;77.10;;;;;;4206967;28;20040;-69
2022/01/30 04:35:11;;;;;;;20.23;15.30;;;28.80;77.50;;;;;;4194020;28;20070;-69
2022/01/30 04:37:39;;;;;;;18.23;14.52;;;28.80;77.30;;;;;;4213134;28;20159;-68
2022/01/30 04:40:19;;;;;;;19.52;14.05;;;28.90;76.90;;;;;;4213290;28;20122;-68
2022/01/30 05:00:35;;;;;;;17.17;12.63;;;29.40;75.20;;;;;;4213220;28;20044;-67
2022/01/30 05:02:54;;;;;;;16.08;12.68;;;29.40;75.90;;;;;;4194332;28;20095;-67
2022/01/30 05:07:47;;;;;;;15.10;12.35;;;29.50;75.90;;;;;;4214843;28;20139;-68
2022/01/30 05:10:04;;;;;;;15.05;12.75;;;29.60;76.30;;;;;;4213125;28;20460;-68
2022/01/30 05:12:18;;;;;;;15.00;12.68;;;29.60;76.70;;;;;;4196973;28;20052;-68
2022/01/30 05:14:36;;;;;;;18.30;12.80;;;29.60;75.70;;;;;;4214282;28;20063;-67
2022/01/30 05:17:01;;;;;;;15.35;11.93;;;29.70;74.80;;;;;;4201133;28;20048;-69
2022/01/30 05:19:18;;;;;;;17.50;12.35;;;29.80;74.60;;;;;;4197357;28;20110;-68
2022/01/30 05:21:29;;;;;;;15.43;12.75;;;30.00;73.80;;;;;;4212624;28;20055;-67
2022/01/30 05:23:49;;;;;;;15.73;12.90;;;30.10;74.10;;;;;;4203075;28;20052;-68
2022/01/30 05:26:13;;;;;;;15.63;12.50;;;30.00;74.50;;;;;;4216921;28;20139;-67
2022/01/30 05:28:37;;;;;;;15.82;11.90;;;30.00;74.70;;;;;;4205270;28;20068;-67
2022/01/30 05:31:01;;;;;;;14.55;12.50;;;29.90;75.00;;;;;;4208014;28;20098;-67
2022/01/30 05:33:17;;;;;;;16.00;13.05;;;30.00;75.00;;;;;;4214005;28;20048;-68
2022/01/30 05:35:34;;;;;;;13.95;12.02;;;30.10;73.50;;;;;;4214634;28;20095;-68
2022/01/30 05:37:51;;;;;;;15.93;13.57;;;30.20;73.90;;;;;;4214343;28;20075;-69
2022/01/30 05:40:08;;;;;;;16.20;12.70;;;30.10;74.10;;;;;;4214724;28;20036;-69
2022/01/30 05:42:27;;;;;;;14.73;12.65;;;30.10;74.40;;;;;;4215197;28;20070;-70
2022/01/30 05:44:53;;;;;;;19.70;13.27;;;30.30;73.90;;;;;;4214662;28;20052;-68
2022/01/30 05:46:57;;;;;;;17.42;12.85;;;30.30;74.40;;;;;;4219041;28;20052;-69
2022/01/30 05:49:14;;;;;;;18.27;13.68;;;30.40;74.20;;;;;;4215122;28;20072;-69
2022/01/30 05:51:38;;;;;;;18.42;12.98;;;30.50;73.30;;;;;;4217760;28;20509;-69
2022/01/30 05:53:51;;;;;;;15.25;12.65;;;30.80;72.20;;;;;;4203110;28;20044;-70
2022/01/30 05:55:58;;;;;;;15.90;12.82;;;30.80;72.90;;;;;;4218474;28;20032;-69
2022/01/30 05:58:04;;;;;;;16.50;12.90;;;30.80;72.80;;;;;;4199002;28;20064;-68
2022/01/30 06:00:20;;;;;;;18.90;12.38;;;30.80;73.20;;;;;;4211211;28;20036;-68
2022/01/30 06:02:24;;;;;;;17.85;13.23;;;30.90;73.40;;;;;;4211853;28;20036;-68
2022/01/30 06:04:29;;;;;;;17.60;12.90;;;30.90;73.50;;;;;;4198507;28;20490;-68
2022/01/30 06:06:34;;;;;;;16.17;13.18;;;30.90;73.00;;;;;;4212879;28;20072;-68
2022/01/30 06:10:46;;;;;;;16.63;13.23;;;30.90;73.00;;;;;;4213945;28;20044;-69
2022/01/30 06:12:50;;;;;;;20.45;12.65;;;31.00;73.50;;;;;;4211055;28;20039;-69
2022/01/30 06:14:55;;;;;;;15.77;12.40;;;31.00;74.10;;;;;;4192828;28;20048;-69
2022/01/30 06:17:00;;;;;;;13.98;11.40;;;31.10;74.50;;;;;;4205502;28;20048;-67
2022/01/30 06:19:18;;;;;;;17.02;11.73;;;31.20;73.70;;;;;;4220537;28;20612;-68
2022/01/30 06:21:34;;;;;;;13.60;10.43;;;31.20;73.50;;;;;;4219587;28;20049;-67
2022/01/30 06:23:51;;;;;;;14.10;9.65;;;31.30;72.50;;;;;;4220787;28;20055;-68
2022/01/30 06:26:07;;;;;;;13.25;9.73;;;31.40;71.30;;;;;;4221478;28;20051;-69
2022/01/30 06:28:24;;;;;;;14.60;9.10;;;31.40;70.40;;;;;;4223344;28;20541;-69
2022/01/30 06:30:40;;;;;;;8.73;7.30;;;31.50;69.50;;;;;;4210032;28;20040;-70
2022/01/30 06:32:57;;;;;;;10.68;5.55;;;31.40;68.60;;;;;;4229762;28;20050;-68
2022/01/30 06:35:13;;;;;;;15.43;7.75;;;31.60;67.10;;;;;;4227693;28;20036;-68
2022/01/30 06:37:38;;;;;;;18.02;6.78;;;31.70;67.30;;;;;;4216937;28;20048;-67
2022/01/30 06:40:01;;;;;;;6.65;4.53;;;31.80;63.60;;;;;;4212545;28;20464;-70
2022/01/30 06:42:18;;;;;;;10.98;4.30;;;31.80;64.20;;;;;;4223378;28;20123;-68
2022/01/30 06:44:35;;;;;;;9.40;4.07;;;31.80;64.10;;;;;;4229375;28;20100;-67
2022/01/30 06:46:51;;;;;;;8.93;4.70;;;31.80;62.00;;;;;;4216561;28;20429;-67
2022/01/30 06:49:08;;;;;;;7.90;4.65;;;31.90;62.10;;;;;;4206599;28;20054;-68
2022/01/30 06:51:32;;;;;;;6.53;4.82;;;31.90;63.80;;;;;;4227544;28;20139;-68
2022/01/30 06:53:48;;;;;;;14.25;5.10;;;31.80;63.90;;;;;;4229593;28;20679;-68
2022/01/30 06:56:06;;;;;;;8.52;4.25;;;32.00;64.30;;;;;;4228524;28;20443;-69
2022/01/30 06:58:23;;;;;;;6.72;4.95;;;32.10;63.30;;;;;;4212049;28;20036;-69
2022/01/30 07:00:39;;;;;;;7.55;4.72;;;32.10;61.90;;;;;;4222313;28;20048;-68
2022/01/30 07:03:03;;;;;;;7.28;4.47;;;32.10;62.90;;;;;;4208054;28;20043;-67
2022/01/30 07:05:28;;;;;;;6.20;4.35;;;32.10;62.10;;;;;;4212226;28;20048;-68
2022/01/30 07:07:42;;;;;;;6.43;4.40;;;32.10;62.40;;;;;;4207212;28;20555;-68
2022/01/30 07:09:46;;;;;;;8.55;5.07;;;32.00;63.10;;;;;;4221242;28;20043;-67
2022/01/30 07:11:50;;;;;;;10.48;5.40;;;32.10;62.90;;;;;;4229251;28;20039;-67
2022/01/30 07:13:54;;;;;;;8.98;5.10;;;32.10;62.80;;;;;;4229456;28;20051;-69
2022/01/30 07:15:58;;;;;;;10.38;5.00;;;32.20;63.30;;;;;;4210398;28;20054;-68
2022/01/30 07:18:03;;;;;;;11.82;5.55;;;32.10;63.90;;;;;;4219130;28;20044;-68
2022/01/30 07:20:08;;;;;;;9.25;5.45;;;32.30;61.60;;;;;;4227359;28;20048;-68
2022/01/30 07:22:12;;;;;;;9.57;5.35;;;32.20;61.90;;;;;;4229393;28;20055;-68
2022/01/30 07:24:17;;;;;;;8.15;5.05;;;32.10;62.90;;;;;;4227363;28;20040;-68
2022/01/30 07:26:21;;;;;;;8.07;5.30;;;32.30;61.90;;;;;;4229550;28;20052;-68
2022/01/30 07:28:26;;;;;;;13.98;5.20;;;32.40;62.00;;;;;;4226733;28;20052;-68
2022/01/30 07:30:30;;;;;;;8.80;5.20;;;32.50;62.10;;;;;;4219201;28;20064;-67
2022/01/30 07:32:35;;;;;;;7.75;5.30;;;32.40;62.20;;;;;;4214996;28;20047;-68
2022/01/30 07:34:39;;;;;;;6.28;4.80;;;32.40;61.80;;;;;;4216676;28;20122;-68
2022/01/30 07:36:46;;;;;;;9.52;5.70;;;32.30;62.00;;;;;;4214723;28;20060;-68
2022/01/30 07:38:50;;;;;;;8.60;5.88;;;32.10;62.60;;;;;;4214714;28;20036;-68
2022/01/30 07:40:55;;;;;;;10.02;5.70;;;32.10;63.20;;;;;;4230496;28;20573;-68
2022/01/30 07:42:59;;;;;;;8.27;4.57;;;32.10;63.70;;;;;;4223708;28;20386;-68
2022/01/30 07:45:04;;;;;;;10.13;5.07;;;32.30;62.50;;;;;;4212420;28;20039;-69
2022/01/30 07:47:08;;;;;;;10.18;5.10;;;32.30;62.10;;;;;;4220687;28;20139;-68
2022/01/30 07:49:13;;;;;;;11.68;4.80;;;32.20;62.00;;;;;;4221851;28;20047;-68
2022/01/30 07:51:17;;;;;;;8.45;5.40;;;32.20;61.60;;;;;;4223120;28;20116;-69
2022/01/30 07:53:22;;;;;;;7.50;5.57;;;32.20;62.40;;;;;;4223346;28;20072;-67
2022/01/30 07:55:26;;;;;;;8.63;5.20;;;32.10;63.20;;;;;;4220823;28;20040;-67
2022/01/30 07:57:31;;;;;;;7.57;5.07;;;32.10;63.00;;;;;;4230578;28;20431;-68
2022/01/30 07:59:35;;;;;;;8.02;4.60;;;32.10;62.10;;;;;;4222482;28;20050;-67
2022/01/30 08:01:40;;;;;;;7.68;4.72;;;32.20;62.30;;;;;;4220087;28;20063;-68
2022/01/30 08:03:44;;;;;;;7.68;4.55;;;32.30;62.00;;;;;;4232204;28;20043;-68
2022/01/30 08:05:49;;;;;;;11.30;4.90;;;32.20;62.00;;;;;;4219084;28;20062;-68
2022/01/30 08:07:53;;;;;;;9.15;4.72;;;32.20;62.40;;;;;;4201611;28;20127;-68
2022/01/30 08:09:58;;;;;;;8.35;4.45;;;32.30;61.70;;;;;;4214959;28;20052;-68
2022/01/30 08:12:02;;;;;;;7.95;4.68;;;32.20;60.40;;;;;;4213616;28;20047;-68
2022/01/30 08:14:06;;;;;;;7.90;4.63;;;32.20;59.90;;;;;;4213810;28;20386;-68
2022/01/30 08:16:10;;;;;;;9.43;4.32;;;32.10;60.60;;;;;;4224590;28;20089;-68
2022/01/30 08:18:15;;;;;;;7.50;4.30;;;32.10;61.10;;;;;;4231971;28;20501;-68
2022/01/30 08:20:25;;;;;;;8.93;4.65;;;32.20;61.40;;;;;;4231793;28;20051;-68
2022/01/30 08:22:31;;;;;;;6.40;4.68;;;32.20;61.90;;;;;;4217575;28;20076;-68
2022/01/30 08:24:35;;;;;;;16.50;4.70;;;32.30;62.80;;;;;;4222677;28;20074;-68
2022/01/30 08:26:39;;;;;;;6.70;3.88;;;32.50;60.60;;;;;;4217989;28;20040;-68
2022/01/30 08:28:44;;;;;;;6.55;3.92;;;32.30;59.30;;;;;;4219885;28;20527;-68
2022/01/30 08:30:48;;;;;;;5.10;4.35;;;32.30;58.50;;;;;;4222622;28;20051;-68
2022/01/30 08:32:52;;;;;;;6.43;3.90;;;32.30;58.70;;;;;;4202536;28;20128;-67
2022/01/30 08:34:57;;;;;;;7.93;3.80;;;32.30;59.40;;;;;;4213853;28;20048;-67
2022/01/30 08:37:01;;;;;;;6.47;4.03;;;32.20;59.80;;;;;;4214321;28;20054;-67
2022/01/30 08:39:06;;;;;;;6.30;4.70;;;32.10;60.60;;;;;;4214082;28;20048;-68
2022/01/30 08:41:10;;;;;;;6.90;4.63;;;32.30;59.80;;;;;;4214033;28;20062;-68
2022/01/30 08:43:15;;;;;;;9.23;4.82;;;32.30;59.20;;;;;;4196066;28;20131;-68
2022/01/30 08:45:20;;;;;;;9.63;4.70;;;32.30;57.00;;;;;;4213724;28;20056;-68
2022/01/30 08:47:25;;;;;;;10.57;4.40;;;32.30;57.60;;;;;;4216789;28;20182;-67
2022/01/30 08:49:30;;;;;;;9.75;4.00;;;32.20;58.60;;;;;;4214050;28;20078;-68
2022/01/30 08:51:34;;;;;;;7.22;4.30;;;32.10;59.70;;;;;;4213498;28;20047;-68
2022/01/30 08:53:38;;;;;;;7.43;4.78;;;32.30;60.90;;;;;;4213987;28;20052;-68
2022/01/30 08:55:43;;;;;;;6.43;4.95;;;32.30;61.50;;;;;;4213574;28;20602;-68
2022/01/30 08:57:49;;;;;;;7.78;4.78;;;32.20;61.90;;;;;;4214664;28;20086;-68
2022/01/30 08:59:54;;;;;;;8.50;5.88;;;32.10;62.90;;;;;;4213761;28;20028;-68
2022/01/30 09:01:58;;;;;;;9.23;5.00;;;32.20;62.60;;;;;;4211126;28;20098;-68
2022/01/30 09:04:03;;;;;;;7.00;4.75;;;32.10;62.10;;;;;;4180957;28;20136;-68
2022/01/30 09:06:08;;;;;;;6.63;4.60;;;32.20;60.90;;;;;;4213068;28;20749;-68
2022/01/30 09:08:13;;;;;;;6.35;4.95;;;32.10;61.00;;;;;;4214322;28;20078;-68
2022/01/30 09:10:18;;;;;;;7.72;5.07;;;32.20;60.60;;;;;;4215859;28;20043;-68
2022/01/30 09:12:23;;;;;;;5.85;4.85;;;32.10;61.50;;;;;;4216505;28;20366;-68
2022/01/30 09:14:28;;;;;;;6.68;5.47;;;32.10;62.00;;;;;;4215980;28;20048;-67
2022/01/30 09:16:32;;;;;;;8.35;5.15;;;32.10;62.20;;;;;;4218664;28;20040;-68
2022/01/30 09:18:38;;;;;;;7.20;5.40;;;32.00;61.50;;;;;;4216308;28;20062;-67
2022/01/30 09:20:42;;;;;;;10.70;5.60;;;32.00;62.00;;;;;;4217803;28;20066;-67
2022/01/30 09:22:48;;;;;;;8.35;5.28;;;32.00;62.10;;;;;;4211594;28;20051;-67
2022/01/30 09:24:52;;;;;;;9.20;5.20;;;32.00;62.50;;;;;;4220596;28;20044;-66
2022/01/30 09:26:57;;;;;;;8.25;5.05;;;32.00;62.80;;;;;;4221331;28;20130;-66
2022/01/30 09:29:02;;;;;;;9.20;5.43;;;32.00;61.70;;;;;;4223185;28;20056;-66
2022/01/30 09:31:26;;;;;;;15.55;5.85;;;32.00;59.50;;;;;;4216934;28;20059;-66
2022/01/30 09:33:30;;;;;;;10.65;6.13;;;32.00;58.60;;;;;;4219253;28;20044;-66
2022/01/30 09:35:35;;;;;;;11.98;6.10;;;31.90;59.00;;;;;;4219956;28;20047;-66
2022/01/30 09:37:39;;;;;;;7.43;5.90;;;31.90;59.40;;;;;;4218659;28;20043;-66
2022/01/30 09:39:44;;;;;;;8.38;5.90;;;31.90;59.60;;;;;;4220366;28;20039;-66
2022/01/30 09:41:50;;;;;;;6.97;6.03;;;31.80;60.00;;;;;;4219973;28;20040;-67
2022/01/30 09:43:55;;;;;;;5.72;5.22;;;31.80;60.50;;;;;;4226926;28;20141;-67
2022/01/30 09:46:00;;;;;;;8.65;5.55;;;31.80;60.70;;;;;;4208929;28;20158;-69
2022/01/30 09:48:04;;;;;;;11.27;5.00;;;31.80;60.90;;;;;;4226889;28;20424;-69
2022/01/30 09:50:09;;;;;;;6.53;4.93;;;31.80;59.90;;;;;;4226984;28;20034;-68
2022/01/30 09:52:14;;;;;;;8.75;4.78;;;31.80;59.30;;;;;;4221470;28;20087;-68
2022/01/30 09:54:18;;;;;;;7.78;5.13;;;31.80;59.00;;;;;;4221491;28;20056;-67
2022/01/30 09:56:22;;;;;;;10.45;5.43;;;31.80;59.60;;;;;;4219277;28;20044;-68
2022/01/30 09:58:26;;;;;;;14.20;5.85;;;31.80;60.30;;;;;;4220842;28;20043;-67
2022/01/30 10:00:31;;;;;;;12.63;6.00;;;31.70;60.90;;;;;;4214468;28;20141;-67
2022/01/30 10:02:36;;;;;;;10.20;5.57;;;31.70;61.20;;;;;;4220570;28;20052;-67
2022/01/30 10:04:41;;;;;;;9.77;6.22;;;31.70;61.50;;;;;;4220727;28;20119;-66
2022/01/30 10:06:56;;;;;;;7.90;5.78;;;31.70;61.50;;;;;;4220833;28;20078;-68
2022/01/30 10:09:28;;;;;;;10.25;6.25;;;31.60;60.90;;;;;;4219106;28;20043;-67
2022/01/30 10:11:59;;;;;;;8.50;5.63;;;31.60;61.20;;;;;;4217331;28;20071;-68
2022/01/30 10:14:07;;;;;;;7.47;5.80;;;31.50;62.10;;;;;;4224137;28;20039;-67
2022/01/30 10:16:11;;;;;;;13.95;5.63;;;31.60;61.90;;;;;;4229037;28;20541;-67
2022/01/30 10:18:15;;;;;;;12.82;7.25;;;31.50;62.10;;;;;;4227327;28;20456;-69
2022/01/30 10:20:22;;;;;;;12.10;5.90;;;31.50;61.60;;;;;;4212866;28;20040;-66
2022/01/30 10:22:26;;;;;;;16.05;7.95;;;31.50;61.20;;;;;;4221954;28;20044;-67
2022/01/30 10:24:31;;;;;;;13.95;8.80;;;31.40;61.60;;;;;;4228612;28;20132;-67
2022/01/30 10:26:36;;;;;;;9.75;8.00;;;31.40;62.10;;;;;;4220740;28;20055;-68
2022/01/30 10:28:42;;;;;;;12.02;8.57;;;31.40;62.10;;;;;;4217491;28;20094;-69
2022/01/30 10:30:53;;;;;;;12.98;8.38;;;31.30;62.30;;;;;;4205944;28;20044;-68
2022/01/30 10:32:58;;;;;;;18.90;8.57;;;31.30;62.60;;;;;;4208229;28;20534;-68
2022/01/30 10:35:07;;;;;;;12.05;8.65;;;31.30;62.90;;;;;;4211684;28;20028;-68
2022/01/30 10:37:23;;;;;;;14.15;8.52;;;31.30;63.00;;;;;;4219455;28;20463;-68
2022/01/30 10:39:31;;;;;;;17.60;8.07;;;31.20;63.10;;;;;;4217764;28;20122;-69
2022/01/30 10:41:37;;;;;;;11.88;7.88;;;31.20;63.00;;;;;;4226449;28;20051;-68
2022/01/30 10:43:56;;;;;;;13.45;8.68;;;31.10;62.80;;;;;;4210404;28;20040;-68
2022/01/30 10:46:17;;;;;;;13.57;7.80;;;31.10;63.00;;;;;;4217643;28;20069;-68
2022/01/30 10:48:23;;;;;;;16.58;9.18;;;31.10;63.30;;;;;;4222681;28;20047;-67
2022/01/30 10:50:28;;;;;;;14.32;9.38;;;31.00;63.00;;;;;;4218069;28;20565;-68
2022/01/30 10:52:32;;;;;;;14.93;8.93;;;31.00;62.70;;;;;;4220362;28;20039;-68
2022/01/30 10:54:36;;;;;;;14.18;8.75;;;31.00;62.90;;;;;;4218466;28;20047;-68
2022/01/30 10:56:41;;;;;;;13.63;8.82;;;30.90;62.80;;;;;;4226915;28;20040;-68
2022/01/30 10:59:01;;;;;;;12.85;8.70;;;30.90;62.90;;;;;;4208671;28;20051;-67
2022/01/30 11:01:06;;;;;;;13.98;8.38;;;30.90;62.70;;;;;;4204388;28;20036;-68
2022/01/30 11:03:31;;;;;;;13.45;8.98;;;30.90;62.90;;;;;;4221591;28;20046;-68
2022/01/30 11:05:57;;;;;;;16.65;9.75;;;30.80;62.70;;;;;;4220742;28;20100;-68
2022/01/30 11:08:01;;;;;;;18.50;10.70;;;30.80;63.00;;;;;;4217028;28;20062;-67
2022/01/30 11:10:23;;;;;;;15.23;9.90;;;30.70;62.70;;;;;;4206934;28;20486;-67
2022/01/30 11:12:39;;;;;;;14.35;10.00;;;30.70;62.60;;;;;;4218101;28;20048;-68
2022/01/30 11:19:01;;;;;;;16.05;9.23;;;30.60;62.70;;;;;;4207294;28;20036;-68
2022/01/30 11:21:05;;;;;;;14.23;9.05;;;30.60;62.80;;;;;;4212253;28;20040;-70
2022/01/30 11:23:09;;;;;;;15.05;8.68;;;30.60;62.80;;;;;;4209890;28;20043;-68
2022/01/30 11:25:14;;;;;;;12.48;8.35;;;30.60;62.70;;;;;;4187621;28;20099;-69
2022/01/30 11:27:20;;;;;;;13.02;8.52;;;30.60;62.80;;;;;;4208907;28;20047;-69
2022/01/30 11:29:24;;;;;;;14.07;9.38;;;30.50;62.90;;;;;;4226825;28;20072;-67
2022/01/30 11:31:28;;;;;;;17.27;10.10;;;30.50;63.20;;;;;;4208644;28;20063;-68
2022/01/30 11:33:34;;;;;;;24.33;15.27;;;30.50;63.30;;;;;;4218819;28;20035;-69
2022/01/30 11:35:38;;;;;;;26.48;16.98;;;30.50;63.20;;;;;;4205101;28;20179;-69
2022/01/30 11:37:42;;;;;;;27.13;15.60;;;30.40;63.40;;;;;;4224851;28;20046;-69
2022/01/30 11:39:52;;;;;;;25.08;17.73;;;30.40;63.60;;;;;;4174377;28;20107;-69
2022/01/30 11:42:10;;;;;;;24.13;16.65;;;30.40;63.70;;;;;;4171842;28;20041;-69
2022/01/30 11:44:20;;;;;;;23.30;15.38;;;30.40;63.80;;;;;;4174119;28;20049;-68
2022/01/30 11:46:25;;;;;;;19.23;14.25;;;30.40;64.00;;;;;;4168691;28;20122;-69
2022/01/30 11:48:29;;;;;;;25.00;15.75;;;30.30;63.90;;;;;;4141387;28;20062;-69
2022/01/30 11:50:34;;;;;;;24.00;15.40;;;30.30;64.30;;;;;;4155828;28;20132;-69